createdAt,value
2024-05-09T00:00:46.521Z,9.13
2024-05-09T00:03:14.033Z,9.15
2024-05-09T00:05:42.019Z,9.16
2024-05-09T00:08:10.414Z,9.18
2024-05-09T00:10:39.512Z,9.18
2024-05-09T00:13:08.882Z,9.18
2024-05-09T00:15:36.858Z,9.21
2024-05-09T00:18:06.621Z,9.22
2024-05-09T00:20:38.979Z,9.24
2024-05-09T00:23:09.273Z,9.28
2024-05-09T00:25:37.762Z,9.27
2024-05-09T00:28:06.041Z,9.29
2024-05-09T00:30:36.472Z,9.28
2024-05-09T00:33:06.323Z,9.28
2024-05-09T00:35:35.248Z,9.27
2024-05-09T00:38:02.843Z,9.28
2024-05-09T00:40:39.757Z,9.28
2024-05-09T00:43:11.209Z,9.28
2024-05-09T00:45:39.074Z,9.26
2024-05-09T00:48:08.383Z,9.23
2024-05-09T00:50:49.848Z,9.19
2024-05-09T00:53:17.440Z,9.14
2024-05-09T00:55:44.969Z,9.09
2024-05-09T00:58:14.279Z,9.06
2024-05-09T01:00:42.023Z,9.00
2024-05-09T01:03:11.712Z,8.94
2024-05-09T01:05:40.944Z,8.90
2024-05-09T01:08:09.026Z,8.84
2024-05-09T01:10:37.235Z,8.78
2024-05-09T01:13:05.121Z,8.73
2024-05-09T01:15:33.092Z,8.69
2024-05-09T01:18:01.274Z,8.65
2024-05-09T01:20:39.200Z,8.61
2024-05-09T01:23:09.908Z,8.54
2024-05-09T01:25:37.671Z,8.46
2024-05-09T01:28:05.850Z,8.39
2024-05-09T01:30:35.942Z,8.31
2024-05-09T01:33:07.891Z,8.21
2024-05-09T01:35:37.353Z,8.14
2024-05-09T01:38:05.080Z,8.09
2024-05-09T01:40:37.557Z,8.03
2024-05-09T01:43:08.529Z,7.99
2024-05-09T01:45:37.093Z,7.91
2024-05-09T01:48:05.069Z,7.84
2024-05-09T01:50:38.880Z,7.78
2024-05-09T01:53:10.183Z,7.72
2024-05-09T01:55:38.022Z,7.67
2024-05-09T01:58:05.550Z,7.64
2024-05-09T02:00:39.431Z,7.61
2024-05-09T02:03:13.557Z,7.60
2024-05-09T02:05:47.379Z,7.58
2024-05-09T02:08:17.758Z,7.56
2024-05-09T02:10:46.781Z,7.52
2024-05-09T02:13:14.680Z,7.51
2024-05-09T02:15:42.122Z,7.48
2024-05-09T02:18:09.958Z,7.44
2024-05-09T02:20:38.740Z,7.41
2024-05-09T02:23:07.030Z,7.38
2024-05-09T02:25:34.967Z,7.36
2024-05-09T02:28:02.798Z,7.33
2024-05-09T02:30:38.543Z,7.32
2024-05-09T02:33:11.449Z,7.29
2024-05-09T02:35:41.135Z,7.27
2024-05-09T02:38:09.165Z,7.25
2024-05-09T02:40:38.941Z,7.24
2024-05-09T02:43:08.040Z,7.22
2024-05-09T02:45:36.079Z,7.23
2024-05-09T02:48:03.899Z,7.24
2024-05-09T02:50:37.859Z,7.26
2024-05-09T02:53:09.332Z,7.26
2024-05-09T02:55:40.517Z,7.26
2024-05-09T02:58:07.842Z,7.26
2024-05-09T03:00:39.570Z,7.26
2024-05-09T03:03:14.564Z,7.28
2024-05-09T03:05:43.981Z,7.27
2024-05-09T03:08:11.615Z,7.27
2024-05-09T03:10:39.691Z,7.27
2024-05-09T03:13:12.664Z,7.28
2024-05-09T03:15:41.018Z,7.28
2024-05-09T03:18:08.563Z,7.27
2024-05-09T03:20:37.002Z,7.28
2024-05-09T03:23:06.687Z,7.30
2024-05-09T03:25:34.307Z,7.31
2024-05-09T03:28:01.974Z,7.34
2024-05-09T03:30:36.395Z,7.37
2024-05-09T03:33:54.378Z,7.46
2024-05-09T03:36:21.841Z,7.50
2024-05-09T03:38:50.795Z,7.55
2024-05-09T03:41:21.410Z,7.61
2024-05-09T03:43:49.019Z,7.67
2024-05-09T03:46:16.504Z,7.72
2024-05-09T03:48:43.930Z,7.76
2024-05-09T03:51:11.766Z,7.83
2024-05-09T03:53:39.417Z,7.92
2024-05-09T03:56:10.144Z,8.01
2024-05-09T03:58:37.746Z,8.10
2024-05-09T04:01:05.607Z,8.18
2024-05-09T04:03:36.084Z,8.27
2024-05-09T04:06:03.651Z,8.36
2024-05-09T04:08:31.078Z,8.44
2024-05-09T04:10:58.495Z,8.56
2024-05-09T04:13:25.837Z,8.72
2024-05-09T04:15:53.154Z,8.87
2024-05-09T04:18:20.645Z,9.02
2024-05-09T04:20:48.151Z,9.17
2024-05-09T04:23:15.533Z,9.36
2024-05-09T04:25:44.352Z,9.54
2024-05-09T04:28:12.433Z,9.63
2024-05-09T04:30:41.439Z,9.68
2024-05-09T04:33:11.855Z,9.70
2024-05-09T04:35:45.228Z,9.70
2024-05-09T04:38:13.957Z,9.75
2024-05-09T04:40:44.709Z,9.79
2024-05-09T04:43:16.986Z,9.83
2024-05-09T04:45:44.664Z,9.87
2024-05-09T04:48:12.192Z,9.88
2024-05-09T04:50:40.316Z,9.89
2024-05-09T04:53:09.522Z,9.94
2024-05-09T04:55:38.818Z,9.99
2024-05-09T04:58:09.506Z,10.04
2024-05-09T05:00:39.449Z,10.09
2024-05-09T05:03:12.710Z,10.14
2024-05-09T05:05:43.531Z,10.22
2024-05-09T05:08:12.857Z,10.25
2024-05-09T05:10:41.172Z,10.25
2024-05-09T05:13:22.578Z,10.26
2024-05-09T05:15:56.919Z,10.27
2024-05-09T05:18:28.668Z,10.29
2024-05-09T05:20:56.494Z,10.33
2024-05-09T05:23:24.656Z,10.39
2024-05-09T05:25:55.645Z,10.44
2024-05-09T05:28:25.929Z,10.44
2024-05-09T05:30:53.314Z,10.46
2024-05-09T05:33:27.660Z,10.45
2024-05-09T05:35:55.940Z,10.46
2024-05-09T05:38:27.263Z,10.44
2024-05-09T05:40:56.952Z,10.45
2024-05-09T05:43:24.333Z,10.51
2024-05-09T05:45:51.695Z,10.58
2024-05-09T05:48:19.274Z,10.65
2024-05-09T05:50:46.924Z,10.68
2024-05-09T05:53:14.454Z,10.69
2024-05-09T05:55:42.229Z,10.73
2024-05-09T05:58:14.621Z,10.76
2024-05-09T06:00:42.755Z,10.74
2024-05-09T06:03:12.325Z,10.73
2024-05-09T06:05:41.008Z,10.80
2024-05-09T06:08:09.320Z,10.84
2024-05-09T06:10:39.678Z,10.91
2024-05-09T06:13:10.803Z,10.97
2024-05-09T06:15:41.848Z,11.06
2024-05-09T06:18:11.128Z,11.20
2024-05-09T06:20:43.936Z,11.31
2024-05-09T06:23:12.180Z,11.39
2024-05-09T06:25:40.005Z,11.42
2024-05-09T06:28:07.504Z,11.43
2024-05-09T06:30:41.882Z,11.46
2024-05-09T06:33:12.764Z,11.50
2024-05-09T06:35:42.403Z,11.61
2024-05-09T06:38:10.777Z,11.69
2024-05-09T06:40:41.104Z,11.77
2024-05-09T06:43:11.306Z,11.84
2024-05-09T06:45:39.504Z,11.90
2024-05-09T06:48:09.196Z,11.93
2024-05-09T06:50:39.976Z,11.92
2024-05-09T06:53:09.712Z,11.96
2024-05-09T06:55:38.000Z,12.03
2024-05-09T06:58:07.123Z,12.09
2024-05-09T07:00:39.590Z,12.12
2024-05-09T07:03:10.811Z,12.12
2024-05-09T07:05:40.119Z,12.14
2024-05-09T07:08:08.050Z,12.12
2024-05-09T07:10:36.650Z,12.10
2024-05-09T07:13:12.554Z,12.10
2024-05-09T07:15:41.049Z,12.14
2024-05-09T07:18:18.373Z,12.22
2024-05-09T07:20:48.372Z,12.24
2024-05-09T07:23:17.023Z,12.28
2024-05-09T07:25:45.359Z,12.34
2024-05-09T07:28:20.171Z,12.43
2024-05-09T07:30:47.644Z,12.52
2024-05-09T07:33:19.914Z,12.56
2024-05-09T07:35:49.311Z,12.58
2024-05-09T07:38:17.380Z,12.62
2024-05-09T07:40:44.887Z,12.68
2024-05-09T07:43:12.864Z,12.75
2024-05-09T07:45:49.582Z,12.79
2024-05-09T07:52:37.590Z,12.74
2024-05-09T07:53:47.332Z,12.75
2024-05-09T07:56:19.699Z,12.77
2024-05-09T07:58:49.783Z,12.82
2024-05-09T08:01:17.259Z,12.83
2024-05-09T08:03:45.064Z,12.82
2024-05-09T08:06:12.620Z,12.81
2024-05-09T08:08:39.908Z,12.83
2024-05-09T08:11:07.204Z,12.92
2024-05-09T08:13:34.580Z,13.03
2024-05-09T08:16:01.976Z,13.15
2024-05-09T08:18:29.868Z,13.26
2024-05-09T08:20:57.785Z,13.35
2024-05-09T08:23:25.110Z,13.39
2024-05-09T08:25:55.233Z,13.29
2024-05-09T08:28:22.750Z,13.32
2024-05-09T08:30:50.577Z,13.40
2024-05-09T08:33:18.827Z,13.54
2024-05-09T08:35:46.569Z,13.64
2024-05-09T08:38:14.109Z,13.80
2024-05-09T08:40:41.983Z,14.02
2024-05-09T08:43:11.521Z,14.22
2024-05-09T08:45:45.527Z,14.42
2024-05-09T08:48:19.147Z,14.60
2024-05-09T08:50:46.745Z,14.78
2024-05-09T08:53:19.392Z,15.00
2024-05-09T08:55:46.951Z,15.28
2024-05-09T08:58:20.656Z,15.49
2024-05-09T09:00:48.614Z,15.64
2024-05-09T09:03:18.295Z,15.79
2024-05-09T09:05:55.646Z,16.00
2024-05-09T09:08:22.967Z,16.24
2024-05-09T09:10:52.789Z,16.53
2024-05-09T09:13:20.322Z,16.92
2024-05-09T09:15:48.328Z,17.24
2024-05-09T09:18:18.838Z,17.52
2024-05-09T09:20:47.368Z,17.93
2024-05-09T09:23:15.000Z,18.48
2024-05-09T09:25:42.433Z,19.22
2024-05-09T09:28:09.931Z,19.92
2024-05-09T09:30:41.000Z,20.62
2024-05-09T09:33:09.578Z,21.27
2024-05-09T09:35:39.711Z,21.92
2024-05-09T09:38:07.572Z,22.44
2024-05-09T09:40:39.134Z,22.90
2024-05-09T09:43:15.252Z,23.38
2024-05-09T09:45:43.435Z,23.78
2024-05-09T09:48:12.108Z,24.16
2024-05-09T09:50:39.765Z,24.55
2024-05-09T09:53:12.561Z,24.80
2024-05-09T09:55:39.744Z,24.97
2024-05-09T09:58:09.665Z,25.07
2024-05-09T10:00:47.442Z,25.27
2024-05-09T10:03:15.012Z,25.60
2024-05-09T10:05:45.324Z,26.01
2024-05-09T10:08:17.620Z,26.37
2024-05-09T10:10:48.701Z,26.67
2024-05-09T10:13:16.415Z,26.93
2024-05-09T10:15:51.648Z,27.04
2024-05-09T10:18:28.461Z,27.14
2024-05-09T10:20:59.318Z,27.43
2024-05-09T10:23:27.600Z,27.71
2024-05-09T10:26:02.755Z,28.00
2024-05-09T10:28:34.885Z,28.20
2024-05-09T10:31:09.758Z,28.38
2024-05-09T10:33:50.864Z,28.44
2024-05-09T10:36:26.011Z,28.45
2024-05-09T10:38:54.070Z,28.38
2024-05-09T10:41:22.246Z,28.45
2024-05-09T10:43:50.282Z,28.64
2024-05-09T10:46:19.135Z,28.59
2024-05-09T10:48:47.354Z,28.61
2024-05-09T10:51:15.000Z,28.78
2024-05-09T10:53:44.350Z,29.13
2024-05-09T10:56:13.673Z,29.40
2024-05-09T10:58:41.009Z,29.70
2024-05-09T11:01:09.636Z,30.01
2024-05-09T11:03:37.897Z,30.23
2024-05-09T11:06:06.179Z,30.32
2024-05-09T11:08:33.901Z,30.51
2024-05-09T11:11:02.744Z,30.64
2024-05-09T11:13:30.919Z,30.81
2024-05-09T11:15:59.211Z,31.00
2024-05-09T11:18:30.677Z,31.11
2024-05-09T11:21:01.031Z,31.30
2024-05-09T11:23:30.166Z,31.62
2024-05-09T11:25:58.263Z,31.91
2024-05-09T11:28:26.943Z,32.11
2024-05-09T11:31:07.415Z,32.26
2024-05-09T11:33:42.766Z,32.57
2024-05-09T11:36:10.393Z,32.90
2024-05-09T11:38:37.910Z,33.11
2024-05-09T11:41:05.555Z,33.19
2024-05-09T11:43:33.144Z,33.24
2024-05-09T11:46:00.850Z,33.21
2024-05-09T11:48:28.512Z,33.07
2024-05-09T11:50:56.243Z,33.08
2024-05-09T11:53:23.769Z,33.29
2024-05-09T11:55:51.135Z,33.52
2024-05-09T11:58:19.253Z,33.72
2024-05-09T12:00:47.361Z,33.86
2024-05-09T12:03:14.982Z,33.93
2024-05-09T12:05:42.570Z,34.07
2024-05-09T12:08:10.268Z,34.26
2024-05-09T12:10:37.779Z,34.26
2024-05-09T12:13:06.886Z,34.16
2024-05-09T12:15:36.049Z,34.09
2024-05-09T12:18:08.611Z,33.97
2024-05-09T12:20:39.403Z,33.74
2024-05-09T12:23:09.344Z,33.58
2024-05-09T12:25:38.295Z,33.46
2024-05-09T12:28:06.796Z,33.36
2024-05-09T12:30:38.362Z,33.49
2024-05-09T12:33:12.366Z,33.64
2024-05-09T12:35:43.522Z,33.45
2024-05-09T12:38:14.650Z,33.18
2024-05-09T12:43:10.847Z,33.16
2024-05-09T12:45:39.939Z,33.23
2024-05-09T12:48:11.719Z,33.39
2024-05-09T12:50:40.488Z,33.02
2024-05-09T12:53:08.171Z,32.18
2024-05-09T12:55:44.990Z,30.95
2024-05-09T12:58:22.110Z,29.58
2024-05-09T13:00:51.704Z,28.43
2024-05-09T13:03:19.462Z,27.16
2024-05-09T13:05:47.027Z,26.07
2024-05-09T13:08:14.529Z,25.09
2024-05-09T13:10:42.031Z,24.09
2024-05-09T13:13:10.384Z,23.34
2024-05-09T13:15:39.295Z,22.80
2024-05-09T13:18:07.598Z,22.34
2024-05-09T13:20:36.842Z,21.91
2024-05-09T13:23:05.770Z,21.55
2024-05-09T13:25:37.117Z,21.14
2024-05-09T13:28:05.972Z,20.65
2024-05-09T13:30:39.769Z,20.25
2024-05-09T13:33:12.424Z,19.89
2024-05-09T13:35:47.588Z,19.51
2024-05-09T13:38:18.615Z,19.10
2024-05-09T13:40:47.111Z,18.79
2024-05-09T13:43:17.469Z,18.55
2024-05-09T13:45:48.279Z,18.39
2024-05-09T13:48:17.035Z,18.21
2024-05-09T13:50:44.382Z,18.01
2024-05-09T13:53:11.764Z,17.79
2024-05-09T13:55:40.855Z,17.51
2024-05-09T13:58:09.320Z,17.26
2024-05-09T14:00:46.035Z,17.07
2024-05-09T14:03:17.948Z,16.90
2024-05-09T14:05:47.645Z,16.73
2024-05-09T14:08:20.503Z,16.62
2024-05-09T14:10:48.582Z,16.54
2024-05-09T14:13:16.309Z,16.45
2024-05-09T14:15:43.904Z,16.41
2024-05-09T14:18:13.718Z,16.34
2024-05-09T14:20:42.690Z,16.28
2024-05-09T14:23:10.330Z,16.19
2024-05-09T14:25:42.084Z,16.10
2024-05-09T14:28:11.918Z,16.03
2024-05-09T14:30:40.163Z,16.00
2024-05-09T14:33:11.108Z,15.99
2024-05-09T14:35:39.585Z,15.97
2024-05-09T14:38:07.962Z,15.95
2024-05-09T14:40:42.169Z,15.94
2024-05-09T14:43:12.235Z,15.94
2024-05-09T14:45:40.321Z,15.93
2024-05-09T14:48:08.822Z,15.93
2024-05-09T14:50:39.441Z,15.89
2024-05-09T14:53:12.021Z,15.84
2024-05-09T14:55:40.950Z,15.77
2024-05-09T14:58:10.112Z,15.71
2024-05-09T15:00:41.689Z,15.64
2024-05-09T15:03:12.565Z,15.59
2024-05-09T15:05:40.369Z,15.52
2024-05-09T15:08:08.274Z,15.43
2024-05-09T15:10:37.091Z,15.35
2024-05-09T15:13:07.226Z,15.27
2024-05-09T15:15:37.948Z,15.23
2024-05-09T15:18:06.169Z,15.19
2024-05-09T15:20:36.724Z,15.14
2024-05-09T15:23:06.453Z,15.11
2024-05-09T15:25:34.776Z,15.07
2024-05-09T15:28:03.113Z,15.04
2024-05-09T15:30:33.366Z,14.99
2024-05-09T15:33:03.399Z,14.95
2024-05-09T15:35:32.442Z,14.87
2024-05-09T15:37:59.956Z,14.81
2024-05-09T15:40:37.259Z,14.79
2024-05-09T15:43:08.871Z,14.75
2024-05-09T15:45:37.677Z,14.72
2024-05-09T15:48:05.731Z,14.70
2024-05-09T15:51:31.215Z,14.65
2024-05-09T15:54:01.705Z,14.59
2024-05-09T15:56:29.008Z,14.57
2024-05-09T15:58:56.337Z,14.54
2024-05-09T16:01:23.696Z,14.49
2024-05-09T16:03:51.494Z,14.42
2024-05-09T16:06:19.256Z,14.36
2024-05-09T16:08:46.725Z,14.34
2024-05-09T16:11:16.721Z,14.31
2024-05-09T16:13:44.103Z,14.26
2024-05-09T16:16:11.589Z,14.21
2024-05-09T16:18:39.607Z,14.17
2024-05-09T16:21:07.904Z,14.13
2024-05-09T16:23:39.365Z,14.10
2024-05-09T16:26:06.935Z,14.05
2024-05-09T16:28:34.363Z,14.00
2024-05-09T16:31:02.420Z,13.97
2024-05-09T16:33:31.036Z,13.94
2024-05-09T16:35:58.517Z,13.93
2024-05-09T16:38:25.824Z,13.89
2024-05-09T16:40:53.308Z,13.87
2024-05-09T16:43:20.878Z,13.84
2024-05-09T16:45:49.224Z,13.80
2024-05-09T16:48:16.831Z,13.75
2024-05-09T16:50:44.387Z,13.71
2024-05-09T16:53:13.527Z,13.67
2024-05-09T16:55:41.022Z,13.62
2024-05-09T16:58:08.754Z,13.58
2024-05-09T17:00:41.722Z,13.54
2024-05-09T17:03:13.490Z,13.50
2024-05-09T17:05:42.683Z,13.46
2024-05-09T17:08:10.862Z,13.41
2024-05-09T17:10:38.486Z,13.34
2024-05-09T17:13:07.556Z,13.30
2024-05-09T17:15:37.075Z,13.27
2024-05-09T17:18:06.249Z,13.23
2024-05-09T17:20:36.329Z,13.19
2024-05-09T17:23:06.032Z,13.14
2024-05-09T17:25:34.286Z,13.09
2024-05-09T17:28:07.079Z,13.05
2024-05-09T17:30:37.682Z,13.01
2024-05-09T17:33:08.405Z,12.96
2024-05-09T17:35:37.076Z,12.91
2024-05-09T17:38:06.025Z,12.86
2024-05-09T17:40:36.574Z,12.81
2024-05-09T17:43:07.993Z,12.74
2024-05-09T17:45:38.249Z,12.64
2024-05-09T17:48:06.297Z,12.54
2024-05-09T17:50:36.461Z,12.45
2024-05-09T17:53:06.069Z,12.38
2024-05-09T17:55:34.418Z,12.30
2024-05-09T17:58:02.301Z,12.21
2024-05-09T18:00:37.623Z,12.14
2024-05-09T18:03:11.854Z,12.06
2024-05-09T18:05:40.792Z,11.97
2024-05-09T18:08:08.689Z,11.89
2024-05-09T18:10:38.924Z,11.83
2024-05-09T18:13:09.051Z,11.77
2024-05-09T18:15:37.439Z,11.71
2024-05-09T18:18:05.940Z,11.64
2024-05-09T18:20:41.436Z,11.58
2024-05-09T18:23:17.278Z,11.53
2024-05-09T18:25:46.060Z,11.51
2024-05-09T18:28:13.896Z,11.49
2024-05-09T18:30:42.881Z,11.44
2024-05-09T18:33:11.477Z,11.40
2024-05-09T18:35:42.016Z,11.37
2024-05-09T18:38:09.508Z,11.33
2024-05-09T18:40:38.377Z,11.30
2024-05-09T18:43:08.733Z,11.28
2024-05-09T18:45:38.063Z,11.24
2024-05-09T18:48:08.153Z,11.20
2024-05-09T18:50:39.432Z,11.15
2024-05-09T18:53:12.730Z,11.11
2024-05-09T18:55:42.261Z,11.07
2024-05-09T18:58:09.790Z,11.03
2024-05-09T19:00:40.212Z,10.97
2024-05-09T19:03:13.485Z,10.90
2024-05-09T19:05:44.203Z,10.85
2024-05-09T19:08:14.301Z,10.82
2024-05-09T19:10:41.691Z,10.80
2024-05-09T19:13:12.420Z,10.79
2024-05-09T19:15:42.367Z,10.76
2024-05-09T19:18:12.081Z,10.73
2024-05-09T19:20:39.984Z,10.69
2024-05-09T19:23:07.883Z,10.66
2024-05-09T19:25:36.002Z,10.62
2024-05-09T19:28:05.026Z,10.61
2024-05-09T19:30:39.482Z,10.60
2024-05-09T19:33:13.771Z,10.58
2024-05-09T19:35:42.806Z,10.56
2024-05-09T19:38:12.554Z,10.52
2024-05-09T19:40:40.240Z,10.48
2024-05-09T19:43:07.903Z,10.43
2024-05-09T19:45:36.467Z,10.41
2024-05-09T19:48:05.325Z,10.41
2024-05-09T19:50:41.415Z,10.41
2024-05-09T19:53:13.271Z,10.40
2024-05-09T19:55:41.178Z,10.37
2024-05-09T19:58:09.766Z,10.32
2024-05-09T20:00:39.657Z,10.25
2024-05-09T20:03:16.312Z,10.19
2024-05-09T20:05:44.996Z,10.13
2024-05-09T20:08:12.900Z,10.11
2024-05-09T20:10:40.341Z,10.08
2024-05-09T20:13:08.528Z,10.06
2024-05-09T20:15:37.541Z,10.08
2024-05-09T20:18:06.093Z,10.10
2024-05-09T20:20:39.117Z,10.12
2024-05-09T20:23:12.221Z,10.16
2024-05-09T20:25:40.401Z,10.20
2024-05-09T20:28:07.909Z,10.23
2024-05-09T20:30:36.241Z,10.28
2024-05-09T20:33:06.977Z,10.31
2024-05-09T20:35:36.424Z,10.35
2024-05-09T20:38:04.825Z,10.37
2024-05-09T20:40:36.295Z,10.39
2024-05-09T20:43:07.789Z,10.40
2024-05-09T20:45:36.650Z,10.42
2024-05-09T20:48:04.577Z,10.42
2024-05-09T20:50:37.978Z,10.42
2024-05-09T20:53:13.748Z,10.42
2024-05-09T20:55:42.945Z,10.41
2024-05-09T20:58:10.890Z,10.39
2024-05-09T21:00:42.229Z,10.37
2024-05-09T21:03:14.513Z,10.35
2024-05-09T21:05:43.726Z,10.33
2024-05-09T21:08:11.369Z,10.29
2024-05-09T21:10:39.149Z,10.26
2024-05-09T21:13:07.548Z,10.20
2024-05-09T21:15:35.996Z,10.16
2024-05-09T21:18:04.293Z,10.13
2024-05-09T21:20:35.116Z,10.11
2024-05-09T21:23:03.146Z,10.07
2024-05-09T21:25:30.952Z,10.03
2024-05-09T21:27:58.429Z,9.99
2024-05-09T21:30:32.930Z,9.97
2024-05-09T21:33:09.373Z,9.95
2024-05-09T21:35:38.097Z,9.93
2024-05-09T21:38:05.589Z,9.90
2024-05-09T21:40:35.293Z,9.89
2024-05-09T21:43:06.333Z,9.88
2024-05-09T21:45:34.615Z,9.87
2024-05-09T21:48:06.405Z,9.86
2024-05-09T21:50:39.878Z,9.82
2024-05-09T21:53:13.301Z,9.80
2024-05-09T21:55:44.665Z,9.77
2024-05-09T21:58:13.571Z,9.75
2024-05-09T22:00:45.593Z,9.72
2024-05-09T22:03:13.736Z,9.71
2024-05-09T22:05:43.957Z,9.70
2024-05-09T22:08:11.495Z,9.70
2024-05-09T22:10:39.051Z,9.69
2024-05-09T22:13:07.044Z,9.65
2024-05-09T22:15:36.805Z,9.63
2024-05-09T22:18:05.625Z,9.57
2024-05-09T22:20:37.392Z,9.53
2024-05-09T22:23:07.232Z,9.46
2024-05-09T22:25:35.040Z,9.40
2024-05-09T22:28:03.163Z,9.32
2024-05-09T22:30:37.037Z,9.21
2024-05-09T22:33:08.464Z,9.12
2024-05-09T22:35:36.938Z,9.03
2024-05-09T22:38:04.383Z,8.95
2024-05-09T22:40:42.160Z,8.87
2024-05-09T22:43:23.379Z,8.85
2024-05-09T22:45:53.961Z,8.80
2024-05-09T22:48:21.705Z,8.76
2024-05-09T22:50:49.229Z,8.74
2024-05-09T22:53:16.474Z,8.70
2024-05-09T22:55:43.778Z,8.66
2024-05-09T22:58:11.155Z,8.63
2024-05-09T23:00:39.227Z,8.65
2024-05-09T23:03:06.778Z,8.71
2024-05-09T23:05:34.273Z,8.75
2024-05-09T23:08:02.295Z,8.81
2024-05-09T23:10:35.615Z,8.85
2024-05-09T23:13:08.488Z,8.90
2024-05-09T23:15:36.881Z,8.93
2024-05-09T23:18:04.729Z,8.95
2024-05-09T23:20:37.502Z,8.97
2024-05-09T23:23:08.341Z,8.98
2024-05-09T23:25:36.567Z,8.99
2024-05-09T23:28:04.474Z,9.01
2024-05-09T23:30:37.218Z,9.02
2024-05-09T23:33:08.940Z,9.02
2024-05-09T23:35:36.563Z,9.03
2024-05-09T23:38:04.510Z,9.03
2024-05-09T23:43:02.510Z,9.02
2024-05-09T23:45:29.921Z,9.01
2024-05-09T23:47:57.290Z,9.01
2024-05-09T23:50:33.103Z,9.02
2024-05-09T23:53:04.860Z,9.03
2024-05-09T23:55:32.703Z,9.01
2024-05-09T23:58:00.528Z,8.99
